sensor_id;sensor_type;location;lat;lon;timestamp;pressure;altitude;pressure_sealevel;temperature;humidity
20145;BME280;10233;50.814;6.590;2023-01-25T00:00:26;102261.91;;;2.70;100.00
20145;BME280;10233;50.814;6.590;2023-01-25T00:01:26;102256.84;;;2.67;100.00
20145;BME280;10233;50.814;6.590;2023-01-25T00:02:27;102263.03;;;2.66;100.00
20145;BME280;10233;50.814;6.590;2023-01-25T00:03:28;102259.38;;;2.69;100.00
20145;BME280;10233;50.814;6.590;2023-01-25T00:04:29;102257.47;;;2.71;100.00
20145;BME280;10233;50.814;6.590;2023-01-25T00:05:29;102261.28;;;2.67;100.00
20145;BME280;10233;50.814;6.590;2023-01-25T00:06:32;102252.00;;;2.61;100.00
20145;BME280;10233;50.814;6.590;2023-01-25T00:07:32;102260.28;;;2.55;100.00
20145;BME280;10233;50.814;6.590;2023-01-25T00:08:32;102251.69;;;2.66;100.00
20145;BME280;10233;50.814;6.590;2023-01-25T00:09:33;102257.19;;;2.75;100.00
20145;BME280;10233;50.814;6.590;2023-01-25T00:10:34;102249.91;;;2.66;100.00
20145;BME280;10233;50.814;6.590;2023-01-25T00:11:34;102254.09;;;2.56;100.00
20145;BME280;10233;50.814;6.590;2023-01-25T00:12:36;102248.75;;;2.58;100.00
20145;BME280;10233;50.814;6.590;2023-01-25T00:13:37;102250.09;;;2.63;100.00
20145;BME280;10233;50.814;6.590;2023-01-25T00:14:37;102244.66;;;2.66;100.00
20145;BME280;10233;50.814;6.590;2023-01-25T00:15:38;102252.63;;;2.65;100.00
20145;BME280;10233;50.814;6.590;2023-01-25T00:16:40;102254.13;;;2.69;100.00
20145;BME280;10233;50.814;6.590;2023-01-25T00:17:41;102249.72;;;2.69;100.00
20145;BME280;10233;50.814;6.590;2023-01-25T00:18:41;102249.28;;;2.63;100.00
20145;BME280;10233;50.814;6.590;2023-01-25T00:19:42;102245.91;;;2.61;100.00
20145;BME280;10233;50.814;6.590;2023-01-25T00:20:42;102244.34;;;2.71;100.00
20145;BME280;10233;50.814;6.590;2023-01-25T00:21:43;102247.84;;;2.71;100.00
20145;BME280;10233;50.814;6.590;2023-01-25T00:22:43;102245.00;;;2.74;100.00
20145;BME280;10233;50.814;6.590;2023-01-25T00:23:44;102251.50;;;2.69;100.00
20145;BME280;10233;50.814;6.590;2023-01-25T00:24:44;102249.50;;;2.72;100.00
20145;BME280;10233;50.814;6.590;2023-01-25T00:25:45;102249.50;;;2.72;100.00
20145;BME280;10233;50.814;6.590;2023-01-25T00:26:45;102249.59;;;2.71;100.00
20145;BME280;10233;50.814;6.590;2023-01-25T00:27:46;102245.53;;;2.67;100.00
20145;BME280;10233;50.814;6.590;2023-01-25T00:28:50;102243.53;;;2.70;100.00
20145;BME280;10233;50.814;6.590;2023-01-25T00:29:50;102236.88;;;2.65;100.00
20145;BME280;10233;50.814;6.590;2023-01-25T00:30:51;102244.88;;;2.76;100.00
20145;BME280;10233;50.814;6.590;2023-01-25T00:32:07;102244.69;;;2.79;100.00
20145;BME280;10233;50.814;6.590;2023-01-25T00:33:47;102243.53;;;2.70;100.00
20145;BME280;10233;50.814;6.590;2023-01-25T00:34:49;102234.63;;;2.85;100.00
20145;BME280;10233;50.814;6.590;2023-01-25T00:35:50;102240.31;;;2.79;100.00
20145;BME280;10233;50.814;6.590;2023-01-25T00:36:55;102239.44;;;2.79;100.00
20145;BME280;10233;50.814;6.590;2023-01-25T00:38:00;102235.25;;;2.76;100.00
20145;BME280;10233;50.814;6.590;2023-01-25T00:39:01;102238.06;;;2.73;100.00
20145;BME280;10233;50.814;6.590;2023-01-25T00:40:02;102235.03;;;2.79;100.00
20145;BME280;10233;50.814;6.590;2023-01-25T00:41:03;102236.69;;;2.68;100.00
20145;BME280;10233;50.814;6.590;2023-01-25T00:42:04;102234.50;;;2.62;100.00
20145;BME280;10233;50.814;6.590;2023-01-25T00:43:05;102232.25;;;2.56;100.00
20145;BME280;10233;50.814;6.590;2023-01-25T00:44:05;102236.44;;;2.58;100.00
20145;BME280;10233;50.814;6.590;2023-01-25T00:45:06;102233.69;;;2.47;100.00
20145;BME280;10233;50.814;6.590;2023-01-25T00:46:08;102233.50;;;2.50;100.00
20145;BME280;10233;50.814;6.590;2023-01-25T00:47:11;102232.13;;;2.45;100.00
20145;BME280;10233;50.814;6.590;2023-01-25T00:48:11;102227.31;;;2.51;100.00
20145;BME280;10233;50.814;6.590;2023-01-25T00:49:21;102231.84;;;2.49;100.00
20145;BME280;10233;50.814;6.590;2023-01-25T00:50:22;102225.34;;;2.67;100.00
20145;BME280;10233;50.814;6.590;2023-01-25T00:51:23;102225.16;;;2.70;100.00
20145;BME280;10233;50.814;6.590;2023-01-25T00:52:23;102223.22;;;2.60;100.00
20145;BME280;10233;50.814;6.590;2023-01-25T00:53:24;102223.00;;;2.50;100.00
20145;BME280;10233;50.814;6.590;2023-01-25T00:54:25;102215.97;;;2.51;100.00
20145;BME280;10233;50.814;6.590;2023-01-25T00:55:25;102214.00;;;2.54;100.00
20145;BME280;10233;50.814;6.590;2023-01-25T00:56:26;102214.94;;;2.66;100.00
20145;BME280;10233;50.814;6.590;2023-01-25T00:57:27;102215.88;;;2.52;100.00
20145;BME280;10233;50.814;6.590;2023-01-25T00:58:27;102212.97;;;2.57;100.00
20145;BME280;10233;50.814;6.590;2023-01-25T00:59:27;102212.06;;;2.44;100.00
20145;BME280;10233;50.814;6.590;2023-01-25T01:00:28;102218.09;;;2.32;100.00
20145;BME280;10233;50.814;6.590;2023-01-25T01:01:30;102208.25;;;2.23;100.00
20145;BME280;10233;50.814;6.590;2023-01-25T01:02:31;102212.41;;;2.13;100.00
20145;BME280;10233;50.814;6.590;2023-01-25T01:03:32;102213.75;;;2.18;100.00
20145;BME280;10233;50.814;6.590;2023-01-25T01:04:36;102206.53;;;2.22;100.00
20145;BME280;10233;50.814;6.590;2023-01-25T01:05:37;102209.06;;;2.23;100.00
20145;BME280;10233;50.814;6.590;2023-01-25T01:06:38;102223.06;;;2.10;100.00
20145;BME280;10233;50.814;6.590;2023-01-25T01:07:38;102219.47;;;2.25;100.00
20145;BME280;10233;50.814;6.590;2023-01-25T01:08:40;102204.66;;;2.24;100.00
20145;BME280;10233;50.814;6.590;2023-01-25T01:09:41;102216.84;;;2.25;100.00
20145;BME280;10233;50.814;6.590;2023-01-25T01:10:41;102207.28;;;2.24;100.00
20145;BME280;10233;50.814;6.590;2023-01-25T01:11:42;102212.19;;;2.16;100.00
20145;BME280;10233;50.814;6.590;2023-01-25T01:12:42;102212.59;;;2.10;100.00
20145;BME280;10233;50.814;6.590;2023-01-25T01:13:43;102213.91;;;2.29;100.00
20145;BME280;10233;50.814;6.590;2023-01-25T01:14:43;102221.44;;;2.21;100.00
20145;BME280;10233;50.814;6.590;2023-01-25T01:15:44;102210.41;;;2.16;100.00
20145;BME280;10233;50.814;6.590;2023-01-25T01:16:45;102201.53;;;2.31;100.00
20145;BME280;10233;50.814;6.590;2023-01-25T01:17:45;102212.97;;;2.30;100.00
20145;BME280;10233;50.814;6.590;2023-01-25T01:18:46;102206.97;;;2.28;100.00
20145;BME280;10233;50.814;6.590;2023-01-25T01:19:47;102205.84;;;2.32;100.00
20145;BME280;10233;50.814;6.590;2023-01-25T01:20:49;102210.91;;;2.35;100.00
20145;BME280;10233;50.814;6.590;2023-01-25T01:21:50;102208.47;;;2.32;100.00
20145;BME280;10233;50.814;6.590;2023-01-25T01:22:51;102206.38;;;2.37;100.00
20145;BME280;10233;50.814;6.590;2023-01-25T01:23:54;102211.19;;;2.31;100.00
20145;BME280;10233;50.814;6.590;2023-01-25T01:24:54;102211.13;;;2.18;100.00
20145;BME280;10233;50.814;6.590;2023-01-25T01:25:58;102208.25;;;2.23;100.00
20145;BME280;10233;50.814;6.590;2023-01-25T01:26:59;102211.78;;;2.22;100.00
20145;BME280;10233;50.814;6.590;2023-01-25T01:28:00;102214.91;;;2.14;100.00
20145;BME280;10233;50.814;6.590;2023-01-25T01:29:00;102209.88;;;2.11;100.00
20145;BME280;10233;50.814;6.590;2023-01-25T01:30:01;102209.06;;;2.23;100.00
20145;BME280;10233;50.814;6.590;2023-01-25T01:31:04;102211.13;;;2.18;100.00
20145;BME280;10233;50.814;6.590;2023-01-25T01:32:09;102211.31;;;2.03;100.00
20145;BME280;10233;50.814;6.590;2023-01-25T01:33:09;102212.59;;;2.10;100.00
20145;BME280;10233;50.814;6.590;2023-01-25T01:34:12;102212.19;;;2.16;100.00
20145;BME280;10233;50.814;6.590;2023-01-25T01:35:14;102213.75;;;2.18;100.00
20145;BME280;10233;50.814;6.590;2023-01-25T01:36:17;102207.16;;;2.13;100.00
20145;BME280;10233;50.814;6.590;2023-01-25T01:37:19;102212.75;;;2.07;100.00
20145;BME280;10233;50.814;6.590;2023-01-25T01:38:19;102212.69;;;2.08;100.00
20145;BME280;10233;50.814;6.590;2023-01-25T01:39:20;102217.63;;;2.13;100.00
20145;BME280;10233;50.814;6.590;2023-01-25T01:40:20;102211.28;;;2.29;100.00
20145;BME280;10233;50.814;6.590;2023-01-25T01:41:21;102209.00;;;2.37;100.00
20145;BME280;10233;50.814;6.590;2023-01-25T01:42:22;102201.13;;;2.37;100.00
20145;BME280;10233;50.814;6.590;2023-01-25T01:43:23;102207.00;;;2.41;100.00
20145;BME280;10233;50.814;6.590;2023-01-25T01:44:50;102213.34;;;2.51;100.00
20145;BME280;10233;50.814;6.590;2023-01-25T01:45:55;102213.13;;;2.41;100.00
20145;BME280;10233;50.814;6.590;2023-01-25T01:47:07;102213.72;;;2.32;100.00
20145;BME280;10233;50.814;6.590;2023-01-25T01:49:37;102213.31;;;2.38;100.00
20145;BME280;10233;50.814;6.590;2023-01-25T01:50:47;102214.88;;;2.41;100.00
20145;BME280;10233;50.814;6.590;2023-01-25T01:51:56;102206.50;;;2.48;100.00
20145;BME280;10233;50.814;6.590;2023-01-25T01:53:01;102202.31;;;2.46;100.00
20145;BME280;10233;50.814;6.590;2023-01-25T01:54:17;102206.84;;;2.56;100.00
20145;BME280;10233;50.814;6.590;2023-01-25T01:55:21;102208.75;;;2.54;100.00
20145;BME280;10233;50.814;6.590;2023-01-25T01:56:35;102202.97;;;2.49;100.00
20145;BME280;10233;50.814;6.590;2023-01-25T01:57:41;102209.66;;;2.53;100.00
20145;BME280;10233;50.814;6.590;2023-01-25T01:58:44;102205.72;;;2.60;100.00
20145;BME280;10233;50.814;6.590;2023-01-25T02:00:46;102205.81;;;2.59;100.00
20145;BME280;10233;50.814;6.590;2023-01-25T02:01:46;102214.22;;;2.64;100.00
20145;BME280;10233;50.814;6.590;2023-01-25T02:02:48;102205.81;;;2.59;100.00
20145;BME280;10233;50.814;6.590;2023-01-25T02:03:50;102208.03;;;2.65;100.00
20145;BME280;10233;50.814;6.590;2023-01-25T02:04:53;102201.41;;;2.59;100.00
20145;BME280;10233;50.814;6.590;2023-01-25T02:06:06;102201.06;;;2.51;100.00
20145;BME280;10233;50.814;6.590;2023-01-25T02:07:31;102208.94;;;2.51;100.00
20145;BME280;10233;50.814;6.590;2023-01-25T02:08:33;102211.16;;;2.57;100.00
20145;BME280;10233;50.814;6.590;2023-01-25T02:09:36;102205.28;;;2.66;100.00
20145;BME280;10233;50.814;6.590;2023-01-25T02:10:37;102200.69;;;2.70;100.00
20145;BME280;10233;50.814;6.590;2023-01-25T02:11:38;102196.47;;;2.67;100.00
20145;BME280;10233;50.814;6.590;2023-01-25T02:12:40;102204.56;;;2.64;100.00
20145;BME280;10233;50.814;6.590;2023-01-25T02:13:41;102204.97;;;2.71;100.00
20145;BME280;10233;50.814;6.590;2023-01-25T02:14:47;102201.63;;;2.69;100.00
20145;BME280;10233;50.814;6.590;2023-01-25T02:15:52;102199.94;;;2.68;100.00
20145;BME280;10233;50.814;6.590;2023-01-25T02:16:54;102201.53;;;2.70;100.00
20145;BME280;10233;50.814;6.590;2023-01-25T02:17:55;102195.84;;;2.76;100.00
20145;BME280;10233;50.814;6.590;2023-01-25T02:18:57;102191.56;;;2.75;100.00
20145;BME280;10233;50.814;6.590;2023-01-25T02:21:39;102196.19;;;2.84;100.00
20145;BME280;10233;50.814;6.590;2023-01-25T02:22:58;102185.88;;;2.81;100.00
20145;BME280;10233;50.814;6.590;2023-01-25T02:25:08;102184.41;;;2.77;100.00
20145;BME280;10233;50.814;6.590;2023-01-25T02:26:08;102185.78;;;2.70;100.00
20145;BME280;10233;50.814;6.590;2023-01-25T02:27:10;102182.53;;;2.79;100.00
20145;BME280;10233;50.814;6.590;2023-01-25T02:28:26;102185.34;;;2.76;100.00
20145;BME280;10233;50.814;6.590;2023-01-25T02:29:28;102181.56;;;2.68;100.00
20145;BME280;10233;50.814;6.590;2023-01-25T02:30:29;102184.22;;;2.80;100.00
20145;BME280;10233;50.814;6.590;2023-01-25T02:31:30;102184.63;;;2.74;100.00
20145;BME280;10233;50.814;6.590;2023-01-25T02:32:33;102185.66;;;2.59;100.00
20145;BME280;10233;50.814;6.590;2023-01-25T02:33:34;102186.28;;;2.63;100.00
20145;BME280;10233;50.814;6.590;2023-01-25T02:34:34;102181.66;;;2.54;100.00
20145;BME280;10233;50.814;6.590;2023-01-25T02:36:43;102189.44;;;2.55;100.00
20145;BME280;10233;50.814;6.590;2023-01-25T02:37:45;102182.63;;;2.65;100.00
20145;BME280;10233;50.814;6.590;2023-01-25T02:38:50;102180.28;;;2.61;100.00
20145;BME280;10233;50.814;6.590;2023-01-25T02:39:53;102185.34;;;2.64;100.00
20145;BME280;10233;50.814;6.590;2023-01-25T02:40:58;102189.56;;;2.66;100.00
20145;BME280;10233;50.814;6.590;2023-01-25T02:42:02;102183.75;;;2.61;100.00
20145;BME280;10233;50.814;6.590;2023-01-25T02:43:02;102180.81;;;2.53;100.00
20145;BME280;10233;50.814;6.590;2023-01-25T02:44:06;102187.53;;;2.57;100.00
20145;BME280;10233;50.814;6.590;2023-01-25T02:45:12;102179.56;;;2.59;100.00
20145;BME280;10233;50.814;6.590;2023-01-25T02:46:24;102179.91;;;2.67;100.00
20145;BME280;10233;50.814;6.590;2023-01-25T02:47:27;102174.75;;;2.65;100.00
20145;BME280;10233;50.814;6.590;2023-01-25T02:48:27;102182.94;;;2.73;100.00
20145;BME280;10233;50.814;6.590;2023-01-25T02:49:27;102179.47;;;2.73;100.00
20145;BME280;10233;50.814;6.590;2023-01-25T02:50:28;102173.06;;;2.64;100.00
20145;BME280;10233;50.814;6.590;2023-01-25T02:51:30;102172.84;;;2.67;100.00
20145;BME280;10233;50.814;6.590;2023-01-25T02:52:31;102175.16;;;2.59;100.00
20145;BME280;10233;50.814;6.590;2023-01-25T02:53:32;102171.78;;;2.57;100.00
20145;BME280;10233;50.814;6.590;2023-01-25T02:54:33;102176.59;;;2.51;100.00
20145;BME280;10233;50.814;6.590;2023-01-25T02:55:35;102174.63;;;2.54;100.00
20145;BME280;10233;50.814;6.590;2023-01-25T02:56:37;102165.19;;;2.64;100.00
20145;BME280;10233;50.814;6.590;2023-01-25T02:57:40;102173.59;;;2.57;100.00
20145;BME280;10233;50.814;6.590;2023-01-25T02:58:40;102178.91;;;2.43;100.00
20145;BME280;10233;50.814;6.590;2023-01-25T02:59:42;102168.72;;;2.51;100.00
20145;BME280;10233;50.814;6.590;2023-01-25T03:00:42;102179.53;;;2.46;100.00
20145;BME280;10233;50.814;6.590;2023-01-25T03:01:44;102174.81;;;2.39;100.00
20145;BME280;10233;50.814;6.590;2023-01-25T03:02:44;102174.72;;;2.40;100.00
20145;BME280;10233;50.814;6.590;2023-01-25T03:03:45;102170.81;;;2.46;100.00
20145;BME280;10233;50.814;6.590;2023-01-25T03:04:46;102173.25;;;2.49;100.00
20145;BME280;10233;50.814;6.590;2023-01-25T03:05:47;102171.56;;;2.48;100.00
20145;BME280;10233;50.814;6.590;2023-01-25T03:06:47;102174.47;;;2.43;100.00
20145;BME280;10233;50.814;6.590;2023-01-25T03:07:48;102169.03;;;2.46;100.00
20145;BME280;10233;50.814;6.590;2023-01-25T03:08:48;102178.91;;;2.43;100.00
20145;BME280;10233;50.814;6.590;2023-01-25T03:09:49;102176.56;;;2.38;100.00
20145;BME280;10233;50.814;6.590;2023-01-25T03:10:50;102183.81;;;2.35;100.00
20145;BME280;10233;50.814;6.590;2023-01-25T03:11:51;102182.22;;;2.32;100.00
20145;BME280;10233;50.814;6.590;2023-01-25T03:12:54;102182.03;;;2.35;100.00
20145;BME280;10233;50.814;6.590;2023-01-25T03:13:55;102179.63;;;2.45;100.00
20145;BME280;10233;50.814;6.590;2023-01-25T03:14:56;102184.44;;;2.38;100.00
20145;BME280;10233;50.814;6.590;2023-01-25T03:16:07;102183.72;;;2.36;100.00
20145;BME280;10233;50.814;6.590;2023-01-25T03:17:09;102180.84;;;2.27;100.00
20145;BME280;10233;50.814;6.590;2023-01-25T03:18:09;102178.34;;;2.25;100.00
20145;BME280;10233;50.814;6.590;2023-01-25T03:19:10;102178.13;;;2.28;100.00
20145;BME280;10233;50.814;6.590;2023-01-25T03:20:12;102173.38;;;2.21;100.00
20145;BME280;10233;50.814;6.590;2023-01-25T03:21:15;102175.56;;;2.14;100.00
20145;BME280;10233;50.814;6.590;2023-01-25T03:22:16;102178.19;;;2.14;100.00
20145;BME280;10233;50.814;6.590;2023-01-25T03:23:17;102176.94;;;2.20;100.00
20145;BME280;10233;50.814;6.590;2023-01-25T03:24:17;102176.75;;;2.23;100.00
20145;BME280;10233;50.814;6.590;2023-01-25T03:25:20;102173.78;;;2.15;100.00
20145;BME280;10233;50.814;6.590;2023-01-25T03:26:30;102178.88;;;2.30;100.00
20145;BME280;10233;50.814;6.590;2023-01-25T03:27:47;102173.22;;;2.36;100.00
20145;BME280;10233;50.814;6.590;2023-01-25T03:28:48;102173.13;;;2.38;100.00
20145;BME280;10233;50.814;6.590;2023-01-25T03:29:48;102174.72;;;2.40;100.00
20145;BME280;10233;50.814;6.590;2023-01-25T03:30:59;102177.63;;;2.36;100.00
20145;BME280;10233;50.814;6.590;2023-01-25T03:31:59;102178.63;;;2.21;100.00
20145;BME280;10233;50.814;6.590;2023-01-25T03:33:00;102174.81;;;2.12;100.00
20145;BME280;10233;50.814;6.590;2023-01-25T03:34:01;102180.47;;;2.06;100.00
20145;BME280;10233;50.814;6.590;2023-01-25T03:35:07;102178.72;;;1.92;100.00
20145;BME280;10233;50.814;6.590;2023-01-25T03:36:08;102182.94;;;1.95;100.00
20145;BME280;10233;50.814;6.590;2023-01-25T03:37:08;102178.84;;;1.91;100.00
20145;BME280;10233;50.814;6.590;2023-01-25T03:38:12;102176.59;;;1.85;100.00
20145;BME280;10233;50.814;6.590;2023-01-25T03:39:13;102183.09;;;1.80;100.00
20145;BME280;10233;50.814;6.590;2023-01-25T03:40:17;102179.81;;;1.76;100.00
20145;BME280;10233;50.814;6.590;2023-01-25T03:41:22;102179.34;;;1.84;100.00
20145;BME280;10233;50.814;6.590;2023-01-25T03:42:23;102182.13;;;1.81;100.00
20145;BME280;10233;50.814;6.590;2023-01-25T03:43:29;102185.63;;;1.81;100.00
20145;BME280;10233;50.814;6.590;2023-01-25T03:44:29;102183.16;;;1.92;100.00
20145;BME280;10233;50.814;6.590;2023-01-25T03:45:31;102173.47;;;1.92;100.00
20145;BME280;10233;50.814;6.590;2023-01-25T03:46:32;102175.56;;;1.88;100.00
20145;BME280;10233;50.814;6.590;2023-01-25T03:47:33;102174.59;;;1.76;100.00
20145;BME280;10233;50.814;6.590;2023-01-25T03:48:34;102176.44;;;1.74;100.00
20145;BME280;10233;50.814;6.590;2023-01-25T03:49:34;102185.34;;;1.72;100.00
20145;BME280;10233;50.814;6.590;2023-01-25T03:50:36;102182.06;;;1.68;100.00
20145;BME280;10233;50.814;6.590;2023-01-25T03:51:37;102182.25;;;1.65;100.00
20145;BME280;10233;50.814;6.590;2023-01-25T03:52:38;102175.91;;;1.69;100.00
20145;BME280;10233;50.814;6.590;2023-01-25T03:53:42;102181.28;;;1.80;100.00
20145;BME280;10233;50.814;6.590;2023-01-25T03:54:47;102179.44;;;1.82;100.00
20145;BME280;10233;50.814;6.590;2023-01-25T03:55:48;102174.63;;;1.89;100.00
20145;BME280;10233;50.814;6.590;2023-01-25T03:56:48;102175.78;;;1.85;100.00
20145;BME280;10233;50.814;6.590;2023-01-25T03:57:55;102176.22;;;1.91;100.00
20145;BME280;10233;50.814;6.590;2023-01-25T03:58:55;102174.16;;;1.96;100.00
20145;BME280;10233;50.814;6.590;2023-01-25T03:59:56;102175.72;;;1.99;100.00
20145;BME280;10233;50.814;6.590;2023-01-25T04:00:58;102166.41;;;2.07;100.00
20145;BME280;10233;50.814;6.590;2023-01-25T04:01:59;102169.22;;;2.04;100.00
20145;BME280;10233;50.814;6.590;2023-01-25T04:02:59;102170.94;;;2.05;100.00
20145;BME280;10233;50.814;6.590;2023-01-25T04:04:01;102169.34;;;2.03;100.00
20145;BME280;10233;50.814;6.590;2023-01-25T04:05:01;102168.84;;;2.10;100.00
20145;BME280;10233;50.814;6.590;2023-01-25T04:06:03;102173.09;;;1.99;100.00
20145;BME280;10233;50.814;6.590;2023-01-25T04:07:04;102167.69;;;2.14;100.00
20145;BME280;10233;50.814;6.590;2023-01-25T04:08:06;102162.72;;;1.97;100.00
20145;BME280;10233;50.814;6.590;2023-01-25T04:09:12;102158.19;;;1.99;100.00
20145;BME280;10233;50.814;6.590;2023-01-25T04:10:17;102166.59;;;2.04;100.00
20145;BME280;10233;50.814;6.590;2023-01-25T04:11:20;102158.00;;;2.02;100.00
20145;BME280;10233;50.814;6.590;2023-01-25T04:12:22;102158.31;;;1.98;100.00
20145;BME280;10233;50.814;6.590;2023-01-25T04:13:23;102162.25;;;1.91;100.00
20145;BME280;10233;50.814;6.590;2023-01-25T04:14:24;102160.09;;;1.97;100.00
20145;BME280;10233;50.814;6.590;2023-01-25T04:15:32;102166.47;;;1.93;100.00
20145;BME280;10233;50.814;6.590;2023-01-25T04:16:41;102155.75;;;2.10;100.00
20145;BME280;10233;50.814;6.590;2023-01-25T04:18:01;102155.44;;;2.15;100.00
20145;BME280;10233;50.814;6.590;2023-01-25T04:19:02;102156.28;;;2.15;100.00
20145;BME280;10233;50.814;6.590;2023-01-25T04:20:04;102155.63;;;2.12;100.00
20145;BME280;10233;50.814;6.590;2023-01-25T04:21:10;102151.31;;;2.11;100.00
20145;BME280;10233;50.814;6.590;2023-01-25T04:22:10;102150.47;;;1.98;100.00
20145;BME280;10233;50.814;6.590;2023-01-25T04:23:12;102148.75;;;1.97;100.00
20145;BME280;10233;50.814;6.590;2023-01-25T04:24:12;102149.41;;;2.00;100.00
20145;BME280;10233;50.814;6.590;2023-01-25T04:25:14;102139.56;;;2.04;100.00
20145;BME280;10233;50.814;6.590;2023-01-25T04:26:21;102144.38;;;1.97;100.00
20145;BME280;10233;50.814;6.590;2023-01-25T04:27:27;102138.81;;;2.02;100.00
20145;BME280;10233;50.814;6.590;2023-01-25T04:28:35;102140.00;;;2.10;100.00
20145;BME280;10233;50.814;6.590;2023-01-25T04:29:35;102133.59;;;2.14;100.00
20145;BME280;10233;50.814;6.590;2023-01-25T04:30:36;102137.16;;;2.13;100.00
20145;BME280;10233;50.814;6.590;2023-01-25T04:31:37;102136.44;;;2.11;100.00
20145;BME280;10233;50.814;6.590;2023-01-25T04:32:39;102134.75;;;2.10;100.00
20145;BME280;10233;50.814;6.590;2023-01-25T04:33:51;102126.28;;;2.32;100.00
20145;BME280;10233;50.814;6.590;2023-01-25T04:34:53;102128.59;;;2.24;100.00
20145;BME280;10233;50.814;6.590;2023-01-25T04:35:57;102129.28;;;2.13;100.00
20145;BME280;10233;50.814;6.590;2023-01-25T04:36:58;102127.19;;;2.06;100.00
20145;BME280;10233;50.814;6.590;2023-01-25T04:38:03;102120.28;;;2.17;100.00
20145;BME280;10233;50.814;6.590;2023-01-25T04:39:10;102123.88;;;2.29;100.00
20145;BME280;10233;50.814;6.590;2023-01-25T04:40:11;102113.69;;;2.24;100.00
20145;BME280;10233;50.814;6.590;2023-01-25T04:41:16;102112.09;;;2.22;100.00
20145;BME280;10233;50.814;6.590;2023-01-25T04:42:18;102111.56;;;2.17;100.00
20145;BME280;10233;50.814;6.590;2023-01-25T04:43:22;102113.56;;;2.13;100.00
20145;BME280;10233;50.814;6.590;2023-01-25T04:44:28;102110.84;;;2.15;100.00
20145;BME280;10233;50.814;6.590;2023-01-25T04:45:28;102108.94;;;2.17;100.00
20145;BME280;10233;50.814;6.590;2023-01-25T04:46:29;102105.50;;;2.16;100.00
20145;BME280;10233;50.814;6.590;2023-01-25T04:47:30;102107.78;;;2.08;100.00
20145;BME280;10233;50.814;6.590;2023-01-25T04:48:32;102120.34;;;2.03;100.00
20145;BME280;10233;50.814;6.590;2023-01-25T04:49:36;102111.53;;;2.04;100.00
20145;BME280;10233;50.814;6.590;2023-01-25T04:50:38;102102.00;;;2.03;100.00
20145;BME280;10233;50.814;6.590;2023-01-25T04:51:39;102110.47;;;1.94;100.00
20145;BME280;10233;50.814;6.590;2023-01-25T04:52:41;102109.31;;;1.98;100.00
20145;BME280;10233;50.814;6.590;2023-01-25T04:53:41;102108.59;;;1.96;100.00
20145;BME280;10233;50.814;6.590;2023-01-25T04:54:43;102111.91;;;1.86;100.00
20145;BME280;10233;50.814;6.590;2023-01-25T04:55:45;102107.94;;;1.92;100.00
20145;BME280;10233;50.814;6.590;2023-01-25T04:56:47;102104.19;;;1.97;100.00
20145;BME280;10233;50.814;6.590;2023-01-25T04:57:48;102107.13;;;1.92;100.00
20145;BME280;10233;50.814;6.590;2023-01-25T04:58:52;102110.16;;;1.86;100.00
20145;BME280;10233;50.814;6.590;2023-01-25T04:59:52;102111.50;;;1.92;100.00
20145;BME280;10233;50.814;6.590;2023-01-25T05:00:59;102121.00;;;1.80;100.00
20145;BME280;10233;50.814;6.590;2023-01-25T05:02:00;102106.75;;;1.84;100.00
20145;BME280;10233;50.814;6.590;2023-01-25T05:03:02;102114.31;;;1.76;100.00
20145;BME280;10233;50.814;6.590;2023-01-25T05:04:02;102115.03;;;1.78;100.00
20145;BME280;10233;50.814;6.590;2023-01-25T05:05:10;102112.50;;;1.77;100.00
20145;BME280;10233;50.814;6.590;2023-01-25T05:06:10;102110.03;;;1.88;100.00
20145;BME280;10233;50.814;6.590;2023-01-25T05:07:11;102114.56;;;1.98;100.00
20145;BME280;10233;50.814;6.590;2023-01-25T05:08:11;102121.31;;;2.02;100.00
20145;BME280;10233;50.814;6.590;2023-01-25T05:09:12;102121.72;;;1.96;100.00
20145;BME280;10233;50.814;6.590;2023-01-25T05:10:14;102119.00;;;1.98;100.00
20145;BME280;10233;50.814;6.590;2023-01-25T05:11:29;102118.13;;;1.97;100.00
20145;BME280;10233;50.814;6.590;2023-01-25T05:12:42;102104.78;;;1.88;100.00
20145;BME280;10233;50.814;6.590;2023-01-25T05:13:42;102100.13;;;2.05;100.00
20145;BME280;10233;50.814;6.590;2023-01-25T05:14:58;102103.13;;;1.99;100.00
20145;BME280;10233;50.814;6.590;2023-01-25T05:15:58;102104.28;;;1.95;100.00
20145;BME280;10233;50.814;6.590;2023-01-25T05:16:59;102102.84;;;2.04;100.00
20145;BME280;10233;50.814;6.590;2023-01-25T05:17:59;102096.03;;;2.01;100.00
20145;BME280;10233;50.814;6.590;2023-01-25T05:19:00;102093.59;;;1.98;100.00
20145;BME280;10233;50.814;6.590;2023-01-25T05:20:16;102100.19;;;1.91;100.00
20145;BME280;10233;50.814;6.590;2023-01-25T05:21:16;102096.41;;;1.95;100.00
20145;BME280;10233;50.814;6.590;2023-01-25T05:22:35;102094.44;;;1.99;100.00
20145;BME280;10233;50.814;6.590;2023-01-25T05:23:36;102096.56;;;2.06;100.00
20145;BME280;10233;50.814;6.590;2023-01-25T05:24:37;102090.78;;;2.01;100.00
20145;BME280;10233;50.814;6.590;2023-01-25T05:25:41;102090.81;;;2.14;100.00
20145;BME280;10233;50.814;6.590;2023-01-25T05:27:16;102091.31;;;2.06;100.00
20145;BME280;10233;50.814;6.590;2023-01-25T05:28:29;102087.44;;;2.12;100.00
20145;BME280;10233;50.814;6.590;2023-01-25T05:29:44;102089.44;;;2.08;100.00
20145;BME280;10233;50.814;6.590;2023-01-25T05:30:45;102080.41;;;2.12;100.00
20145;BME280;10233;50.814;6.590;2023-01-25T05:31:58;102073.41;;;2.13;100.00
20145;BME280;10233;50.814;6.590;2023-01-25T05:32:59;102080.22;;;2.15;100.00
20145;BME280;10233;50.814;6.590;2023-01-25T05:34:00;102078.34;;;2.17;100.00
20145;BME280;10233;50.814;6.590;2023-01-25T05:35:00;102081.47;;;2.22;100.00
20145;BME280;10233;50.814;6.590;2023-01-25T05:36:00;102076.03;;;2.25;100.00